<?xml version="1.0" encoding="UTF-8" standalone="no" ?>
<gpx xmlns="http://www.topografix.com/GPX/1/1" xmlns:xsi="http://www.w3.org/2001/XMLSchema-instance" xsi:schemaLocation="http://www.topografix.com/GPX/1/1 http://www.topografix.com/GPX/1/1/gpx.xsd" version="1.1" creator="VisuGPX - https://www.visugpx.com">
  <metadata>
    <name>luzech 6 descentes</name>
    <desc><![CDATA[parcours typé enduro avec de belles descentes]]></desc>
  </metadata>
  <trk>
    <name><![CDATA[2014-04-01-08-18-57]]></name>
    <trkseg>
      <trkpt lat="44.45954" lon="1.29431">
        <ele>254.109</ele>
        <time>2014-04-01T09:23:07Z</time>
      </trkpt>
      <trkpt lat="44.4596" lon="1.29446">
        <ele>253.448</ele>
        <time>2014-04-01T09:23:13Z</time>
      </trkpt>
      <trkpt lat="44.45972" lon="1.29467">
        <ele>252.328</ele>
        <time>2014-04-01T09:23:19Z</time>
      </trkpt>
      <trkpt lat="44.4598" lon="1.29479">
        <ele>251.368</ele>
        <time>2014-04-01T09:23:23Z</time>
      </trkpt>
      <trkpt lat="44.45986" lon="1.29493">
        <ele>250.508</ele>
        <time>2014-04-01T09:23:27Z</time>
      </trkpt>
      <trkpt lat="44.45993" lon="1.29509">
        <ele>249.698</ele>
        <time>2014-04-01T09:23:31Z</time>
      </trkpt>
      <trkpt lat="44.45999" lon="1.29531">
        <ele>249.128</ele>
        <time>2014-04-01T09:23:35Z</time>
      </trkpt>
      <trkpt lat="44.46017" lon="1.29557">
        <ele>248.669</ele>
        <time>2014-04-01T09:23:41Z</time>
      </trkpt>
      <trkpt lat="44.46021" lon="1.29563">
        <ele>247.878</ele>
        <time>2014-04-01T09:23:45Z</time>
      </trkpt>
      <trkpt lat="44.46025" lon="1.29571">
        <ele>245.256</ele>
        <time>2014-04-01T09:23:49Z</time>
      </trkpt>
      <trkpt lat="44.46034" lon="1.29582">
        <ele>242.706</ele>
        <time>2014-04-01T09:23:53Z</time>
      </trkpt>
      <trkpt lat="44.46045" lon="1.29595">
        <ele>240.497</ele>
        <time>2014-04-01T09:23:57Z</time>
      </trkpt>
      <trkpt lat="44.46048" lon="1.29599">
        <ele>240.007</ele>
        <time>2014-04-01T09:23:58Z</time>
      </trkpt>
      <trkpt lat="44.46063" lon="1.29615">
        <ele>236.407</ele>
        <time>2014-04-01T09:24:03Z</time>
      </trkpt>
      <trkpt lat="44.46073" lon="1.29627">
        <ele>233.195</ele>
        <time>2014-04-01T09:24:06Z</time>
      </trkpt>
      <trkpt lat="44.46091" lon="1.2964">
        <ele>228.554</ele>
        <time>2014-04-01T09:24:10Z</time>
      </trkpt>
      <trkpt lat="44.46098" lon="1.29646">
        <ele>226.565</ele>
        <time>2014-04-01T09:24:12Z</time>
      </trkpt>
      <trkpt lat="44.46108" lon="1.29655">
        <ele>222.194</ele>
        <time>2014-04-01T09:24:16Z</time>
      </trkpt>
      <trkpt lat="44.46119" lon="1.29664">
        <ele>218.255</ele>
        <time>2014-04-01T09:24:21Z</time>
      </trkpt>
      <trkpt lat="44.46126" lon="1.2967">
        <ele>216.167</ele>
        <time>2014-04-01T09:24:25Z</time>
      </trkpt>
      <trkpt lat="44.4613" lon="1.29674">
        <ele>214.558</ele>
        <time>2014-04-01T09:24:29Z</time>
      </trkpt>
      <trkpt lat="44.46139" lon="1.2968">
        <ele>212.527</ele>
        <time>2014-04-01T09:24:33Z</time>
      </trkpt>
      <trkpt lat="44.46151" lon="1.29687">
        <ele>209.587</ele>
        <time>2014-04-01T09:24:38Z</time>
      </trkpt>
      <trkpt lat="44.4616" lon="1.29694">
        <ele>209.199</ele>
        <time>2014-04-01T09:24:42Z</time>
      </trkpt>
      <trkpt lat="44.46161" lon="1.29696">
        <ele>209.019</ele>
        <time>2014-04-01T09:24:43Z</time>
      </trkpt>
      <trkpt lat="44.4617" lon="1.29712">
        <ele>205.056</ele>
        <time>2014-04-01T09:24:49Z</time>
      </trkpt>
      <trkpt lat="44.46178" lon="1.2972">
        <ele>202.006</ele>
        <time>2014-04-01T09:24:53Z</time>
      </trkpt>
      <trkpt lat="44.46189" lon="1.29732">
        <ele>199.376</ele>
        <time>2014-04-01T09:24:57Z</time>
      </trkpt>
      <trkpt lat="44.46202" lon="1.29743">
        <ele>196.087</ele>
        <time>2014-04-01T09:25:02Z</time>
      </trkpt>
      <trkpt lat="44.46216" lon="1.29743">
        <ele>192.376</ele>
        <time>2014-04-01T09:25:06Z</time>
      </trkpt>
      <trkpt lat="44.46227" lon="1.29749">
        <ele>190.609</ele>
        <time>2014-04-01T09:25:11Z</time>
      </trkpt>
      <trkpt lat="44.46237" lon="1.29757">
        <ele>189.71</ele>
        <time>2014-04-01T09:25:15Z</time>
      </trkpt>
      <trkpt lat="44.46238" lon="1.29758">
        <ele>189.566</ele>
        <time>2014-04-01T09:25:18Z</time>
      </trkpt>
    </trkseg>
  </trk>
</gpx>